Adams, North Carolina
Current Conditions -  °F | °C
As of 12:35 PM on Monday 24 Nov 2014 (Local Time) from KTNB Reporting Station
Clear Clear  
Wind Chill: 15°   Ceiling: Unl
Heat Index: 15°   Visibility: 10mi
Dew Point: 10°   Wind: 9mph
Humidity: 70%   Direction: 200°SSW
Pressure: 29.77"   Gusts: NA
Location:  36.2085°N, 81.6605°W
Report Text: KTNB 241735Z AUTO 20008KT 150V240 10SM CLR 15/10 A2977 RMK AO2 T01500096
Loading
Personal Weather Stations






























Interactive Weather Map New forecast layout! Learn more

10-Day Weather Forecast

Advertisements
Track Severe Weather on mobile